createdAt,value
2022-11-24T00:02:00.666Z,96806.78
2022-11-24T00:04:27.832Z,96807.88
2022-11-24T00:06:54.943Z,96807.88
2022-11-24T00:09:22.089Z,96812.22
2022-11-24T00:11:49.231Z,96812.53
2022-11-24T00:14:16.473Z,96815.22
2022-11-24T00:16:44.947Z,96822.97
2022-11-24T00:19:17.021Z,96818.19
2022-11-24T00:21:46.688Z,96820.88
2022-11-24T00:24:13.981Z,96819.25
2022-11-24T00:26:41.074Z,96817.97
2022-11-24T00:29:10.998Z,96820.38
2022-11-24T00:31:40.402Z,96802.19
2022-11-24T00:34:12.085Z,96812.72
2022-11-24T00:36:40.079Z,96825.28
2022-11-24T00:39:11.072Z,96833.34
2022-11-24T00:41:38.192Z,96827.41
2022-11-24T00:44:05.831Z,96839.22
2022-11-24T00:46:33.105Z,96843.81
2022-11-24T00:49:00.459Z,96853.19
2022-11-24T00:51:29.935Z,96842.19
2022-11-24T00:53:57.555Z,96864.44
2022-11-24T00:56:25.439Z,96857.47
2022-11-24T00:58:52.554Z,96862.63
2022-11-24T01:01:21.557Z,96868.22
2022-11-24T01:03:48.790Z,96866.38
2022-11-24T01:06:17.618Z,96865.09
2022-11-24T01:08:46.763Z,96869.34
2022-11-24T01:11:15.922Z,96868.56
2022-11-24T01:13:45.103Z,96853.13
2022-11-24T01:16:19.937Z,96877.22
2022-11-24T01:18:47.589Z,96883.94
2022-11-24T01:21:15.871Z,96873.69
2022-11-24T01:23:43.487Z,96877.72
2022-11-24T01:26:13.948Z,96881.53
2022-11-24T01:28:46.570Z,96893.66
2022-11-24T01:31:15.779Z,96891.25
2022-11-24T01:33:43.016Z,96895.28
2022-11-24T01:36:10.345Z,96905.44
2022-11-24T01:38:37.634Z,96904.06
2022-11-24T01:41:06.880Z,96907.03
2022-11-24T01:43:35.539Z,96891.56
2022-11-24T01:46:10.983Z,96898.19
2022-11-24T01:48:43.347Z,96907.28
2022-11-24T01:51:14.962Z,96918.81
2022-11-24T01:53:49.067Z,96915.84
2022-11-24T01:56:16.290Z,96914.31
2022-11-24T01:58:48.351Z,96926.13
2022-11-24T02:01:15.535Z,96919.13
2022-11-24T02:03:46.080Z,96921.66
2022-11-24T02:06:18.054Z,96931.03
2022-11-24T02:08:48.957Z,96935.56
2022-11-24T02:11:16.632Z,96934.22
2022-11-24T02:13:46.869Z,96933.72
2022-11-24T02:16:14.144Z,96935.34
2022-11-24T02:18:42.456Z,96939.41
2022-11-24T02:21:11.155Z,96943.44
2022-11-24T02:23:44.963Z,96942.28
2022-11-24T02:26:21.166Z,96938.03
2022-11-24T02:28:50.141Z,96951.97
2022-11-24T02:31:17.398Z,96950.34
2022-11-24T02:33:45.323Z,96950.88
2022-11-24T02:36:12.436Z,96955.91
2022-11-24T02:38:39.563Z,96959.91
2022-11-24T02:41:10.308Z,96967.75
2022-11-24T02:43:41.742Z,96964.03
2022-11-24T02:46:10.363Z,96964.03
2022-11-24T02:48:37.526Z,96963.22
2022-11-24T02:51:05.330Z,96969.16
2022-11-24T02:53:32.579Z,96970.53
2022-11-24T02:55:59.704Z,96976.41
2022-11-24T02:58:26.820Z,96978.59
2022-11-24T03:00:54.379Z,96986.66
2022-11-24T03:03:22.950Z,96982.66
2022-11-24T03:05:50.353Z,96985.38
2022-11-24T03:08:17.509Z,96994.22
2022-11-24T03:10:44.908Z,97002.81
2022-11-24T03:13:12.161Z,96997.53
2022-11-24T03:15:39.316Z,97006.34
2022-11-24T03:18:06.588Z,97003.63
2022-11-24T03:20:35.176Z,97004.94
2022-11-24T03:23:02.291Z,97010.81
2022-11-24T03:25:29.408Z,97003.88
2022-11-24T03:27:56.935Z,97009.78
2022-11-24T03:30:24.103Z,97022.88
2022-11-24T03:32:51.723Z,97015.34
2022-11-24T03:35:18.973Z,97013.28
2022-11-24T03:37:47.743Z,97002.59
2022-11-24T03:40:15.368Z,97021.09
2022-11-24T03:42:42.475Z,97029.47
2022-11-24T03:45:44.107Z,97035.06
2022-11-24T03:47:57.318Z,97036.13
2022-11-24T03:50:24.480Z,97036.13
2022-11-24T03:52:53.080Z,97034.06
2022-11-24T03:55:20.213Z,97038.31
2022-11-24T03:57:47.392Z,97029.03
2022-11-24T04:00:15.851Z,97045.53
2022-11-24T04:02:43.169Z,97042.59
2022-11-24T04:05:10.343Z,97049.97
2022-11-24T04:07:37.508Z,97047.22
2022-11-24T04:10:07.557Z,97048.56
2022-11-24T04:12:34.682Z,97042.63
2022-11-24T04:15:01.804Z,97041.78
2022-11-24T04:17:28.935Z,97050.25
2022-11-24T04:19:56.084Z,97048.91
2022-11-24T04:22:23.183Z,97048.13
2022-11-24T04:24:50.292Z,97048.34
2022-11-24T04:27:18.796Z,97052.72
2022-11-24T04:29:45.897Z,97041.25
2022-11-24T04:32:13.075Z,97043.09
2022-11-24T04:34:40.174Z,97052.00
2022-11-24T04:37:07.283Z,97049.41
2022-11-24T04:39:34.447Z,97062.13
2022-11-24T04:42:01.678Z,97057.97
2022-11-24T04:44:30.138Z,97061.50
2022-11-24T04:46:57.337Z,97063.06
2022-11-24T04:49:24.785Z,97071.47
2022-11-24T04:51:51.961Z,97077.97
2022-11-24T04:54:19.119Z,97079.03
2022-11-24T04:56:50.478Z,97079.38
2022-11-24T04:59:18.223Z,97079.56
2022-11-24T05:01:47.348Z,97090.91
2022-11-24T05:04:15.629Z,97098.97
2022-11-24T05:06:42.783Z,97097.06
2022-11-24T05:09:14.223Z,97106.50
2022-11-24T05:11:41.699Z,97110.47
2022-11-24T05:14:08.879Z,97112.91
2022-11-24T05:16:36.187Z,97115.03
2022-11-24T05:19:04.718Z,97123.09
2022-11-24T05:21:31.814Z,97116.41
2022-11-24T05:23:58.931Z,97125.00
2022-11-24T05:26:26.441Z,97128.53
2022-11-24T05:28:53.783Z,97126.13
2022-11-24T05:31:21.126Z,97120.75
2022-11-24T05:33:48.259Z,97128.59
2022-11-24T05:36:16.743Z,97133.16
2022-11-24T05:38:43.886Z,97130.72
2022-11-24T05:41:10.984Z,97142.63
2022-11-24T05:43:38.087Z,97134.47
2022-11-24T05:46:05.427Z,97100.84
2022-11-24T05:48:32.543Z,97140.50
2022-11-24T05:50:59.669Z,97142.75
2022-11-24T05:53:28.207Z,97140.06
2022-11-24T05:55:55.305Z,97148.06
2022-11-24T05:58:22.426Z,97144.59
2022-11-24T06:00:49.787Z,97155.56
2022-11-24T06:03:16.924Z,97150.94
2022-11-24T06:05:46.649Z,97149.41
2022-11-24T06:08:13.997Z,97146.72
2022-11-24T06:10:42.506Z,97150.72
2022-11-24T06:13:09.725Z,97159.06
2022-11-24T06:15:37.097Z,97170.59
2022-11-24T06:18:04.367Z,97139.03
2022-11-24T06:20:33.023Z,97166.31
2022-11-24T06:23:00.816Z,97178.44
2022-11-24T06:25:28.906Z,97190.53
2022-11-24T06:27:57.393Z,97191.59
2022-11-24T06:30:24.494Z,97193.75
2022-11-24T06:32:54.832Z,97199.13
2022-11-24T06:35:23.239Z,97189.25
2022-11-24T06:37:50.374Z,97206.47
2022-11-24T06:40:17.666Z,97198.69
2022-11-24T06:42:50.137Z,97195.47
2022-11-24T06:45:18.703Z,97214.03
2022-11-24T06:47:45.821Z,97208.59
2022-11-24T06:50:12.930Z,97214.78
2022-11-24T06:52:40.061Z,97214.50
2022-11-24T06:55:08.194Z,97215.09
2022-11-24T06:57:35.507Z,97210.75
2022-11-24T07:00:04.191Z,97209.44
2022-11-24T07:02:32.849Z,97210.75
2022-11-24T07:05:00.040Z,97213.69
2022-11-24T07:07:27.223Z,97214.78
2022-11-24T07:09:54.340Z,97216.91
2022-11-24T07:12:21.491Z,97214.28
2022-11-24T07:14:48.604Z,97212.91
2022-11-24T07:17:15.704Z,97205.09
2022-11-24T07:19:44.204Z,97215.53
2022-11-24T07:22:11.296Z,97221.25
2022-11-24T07:24:38.398Z,97224.19
2022-11-24T07:27:05.644Z,97227.41
2022-11-24T07:29:32.789Z,97222.34
2022-11-24T07:32:05.202Z,97232.78
2022-11-24T07:34:33.128Z,97229.84
2022-11-24T07:37:01.777Z,97229.31
2022-11-24T07:39:28.893Z,97236.56
2022-11-24T07:41:56.063Z,97228.00
2022-11-24T07:44:23.360Z,97226.91
2022-11-24T07:46:50.488Z,97228.75
2022-11-24T07:49:17.607Z,97227.41
2022-11-24T07:51:45.151Z,97236.25
2022-11-24T07:54:13.632Z,97244.88
2022-11-24T07:56:40.799Z,97244.59
2022-11-24T07:59:07.911Z,97247.78
2022-11-24T08:01:35.100Z,97254.28
2022-11-24T08:04:02.338Z,97260.19
2022-11-24T08:06:36.248Z,97250.56
2022-11-24T08:09:06.958Z,97254.03
2022-11-24T08:11:35.527Z,97256.16
2022-11-24T08:14:02.627Z,97261.28
2022-11-24T08:16:29.866Z,97258.34
2022-11-24T08:18:57.104Z,97259.13
2022-11-24T08:21:25.034Z,97231.31
2022-11-24T08:23:54.716Z,97266.94
2022-11-24T08:26:22.061Z,97271.78
2022-11-24T08:28:54.377Z,97271.28
2022-11-24T08:31:22.155Z,97270.94
2022-11-24T08:33:49.311Z,97257.56
2022-11-24T08:36:18.386Z,97279.00
2022-11-24T08:38:46.256Z,97273.63
2022-11-24T08:41:16.089Z,97274.47
2022-11-24T08:43:43.410Z,97271.25
2022-11-24T08:46:14.630Z,97255.34
2022-11-24T08:48:41.831Z,97261.53
2022-11-24T08:51:11.127Z,97257.22
2022-11-24T08:53:38.344Z,97252.69
2022-11-24T08:56:06.670Z,97255.66
2022-11-24T08:58:34.126Z,97254.03
2022-11-24T09:01:04.589Z,97257.50
2022-11-24T09:03:33.692Z,97256.44
2022-11-24T09:06:01.550Z,97247.06
2022-11-24T09:08:30.279Z,97260.25
2022-11-24T09:10:59.757Z,97268.31
2022-11-24T09:13:27.113Z,97272.34
2022-11-24T09:15:54.494Z,97280.13
2022-11-24T09:18:23.440Z,97278.78
2022-11-24T09:20:54.785Z,97266.69
2022-11-24T09:23:21.906Z,97275.84
2022-11-24T09:25:49.021Z,97283.34
2022-11-24T09:28:16.159Z,97268.59
2022-11-24T09:30:43.393Z,97277.41
2022-11-24T09:33:10.543Z,97280.34
2022-11-24T09:35:38.050Z,97269.91
2022-11-24T09:38:06.556Z,97249.53
2022-11-24T09:40:33.697Z,97280.09
2022-11-24T09:43:07.300Z,97283.34
2022-11-24T09:48:36.654Z,97273.38
2022-11-24T09:51:05.779Z,97272.06
2022-11-24T09:53:39.668Z,97270.69
2022-11-24T09:56:18.690Z,97277.94
2022-11-24T09:58:48.488Z,97286.00
2022-11-24T10:01:17.938Z,97277.72
2022-11-24T10:03:48.683Z,97282.88
2022-11-24T10:06:26.781Z,97290.94
2022-11-24T10:09:19.283Z,97282.31
2022-11-24T10:11:55.317Z,97283.41
2022-11-24T10:14:52.315Z,97289.84
2022-11-24T10:17:38.352Z,97296.25
2022-11-24T10:20:12.671Z,97287.59
2022-11-24T10:22:48.673Z,97290.19
2022-11-24T10:25:24.477Z,97291.59
2022-11-24T10:27:56.743Z,97303.19
2022-11-24T10:30:23.920Z,97301.34
2022-11-24T10:32:57.035Z,97303.72
2022-11-24T10:35:30.537Z,97291.94
2022-11-24T10:38:06.926Z,97308.59
2022-11-24T10:40:56.464Z,97306.19
2022-11-24T10:43:26.655Z,97301.03
2022-11-24T10:45:55.085Z,97295.91
2022-11-24T10:48:25.719Z,97303.34
2022-11-24T10:50:53.861Z,97307.88
2022-11-24T10:53:24.565Z,97308.66
2022-11-24T10:56:00.970Z,97311.34
2022-11-24T10:58:33.004Z,97308.13
2022-11-24T11:01:20.794Z,97311.25
2022-11-24T11:03:50.744Z,97305.34
2022-11-24T11:06:23.212Z,97306.44
2022-11-24T11:09:19.372Z,97303.72
2022-11-24T11:11:47.423Z,97305.78
2022-11-24T11:14:30.004Z,97309.59
2022-11-24T11:16:57.614Z,97306.63
2022-11-24T11:19:48.980Z,97310.91
2022-11-24T11:22:24.140Z,97302.50
2022-11-24T11:25:03.834Z,97304.69
2022-11-24T11:27:30.858Z,97314.84
2022-11-24T11:36:10.202Z,97316.94
2022-11-24T11:38:39.387Z,97321.22
2022-11-24T11:41:19.304Z,97311.03
2022-11-24T11:43:53.311Z,97323.38
2022-11-24T11:46:21.202Z,97312.66
2022-11-24T11:48:48.435Z,97321.09
2022-11-24T11:51:44.524Z,97326.00
2022-11-24T11:54:23.050Z,97325.72
2022-11-24T11:57:02.642Z,97325.16
2022-11-24T11:59:49.681Z,97330.53
2022-11-24T12:03:13.489Z,97340.75
2022-11-24T12:05:50.642Z,97338.53
2022-11-24T12:08:43.979Z,97332.66
2022-11-24T12:11:27.900Z,97342.16
2022-11-24T12:14:10.741Z,97340.56
2022-11-24T12:16:47.650Z,97343.53
2022-11-24T12:19:27.264Z,97351.63
2022-11-24T12:22:06.719Z,97346.25
2022-11-24T12:24:43.508Z,97342.53
2022-11-24T12:27:24.365Z,97350.53
2022-11-24T12:30:05.153Z,97344.50
2022-11-24T12:32:50.779Z,97345.00
2022-11-24T12:35:25.715Z,97352.53
2022-11-24T12:38:03.245Z,97357.41
2022-11-24T12:40:46.694Z,97356.63
2022-11-24T12:43:22.863Z,97359.09
2022-11-24T12:45:59.181Z,97358.03
2022-11-24T12:48:38.563Z,97365.28
2022-11-24T12:51:15.797Z,97365.50
2022-11-24T12:53:44.538Z,97362.28
2022-11-24T12:56:14.149Z,97360.38
2022-11-24T12:58:49.976Z,97366.59
2022-11-24T13:01:28.736Z,97355.22
2022-11-24T13:04:10.057Z,97364.31
2022-11-24T13:06:49.423Z,97368.09
2022-11-24T13:09:17.313Z,97373.72
2022-11-24T13:11:45.761Z,97366.69
2022-11-24T13:14:16.407Z,97368.06
2022-11-24T13:19:43.644Z,97355.63
2022-11-24T13:22:15.922Z,97367.16
2022-11-24T13:24:43.504Z,97370.09
2022-11-24T13:27:41.945Z,97368.03
2022-11-24T13:30:48.639Z,97373.53
2022-11-24T13:33:32.138Z,97358.84
2022-11-24T13:36:30.634Z,97366.69
2022-11-24T13:38:58.450Z,97379.63
2022-11-24T13:42:08.124Z,97378.00
2022-11-24T13:44:49.538Z,97381.47
2022-11-24T13:47:37.027Z,97380.88
2022-11-24T13:50:08.636Z,97378.94
2022-11-24T13:52:40.630Z,97382.66
2022-11-24T13:55:21.615Z,97386.38
2022-11-24T13:57:51.457Z,97386.09
2022-11-24T14:00:21.329Z,97388.44
2022-11-24T14:02:49.718Z,97392.44
2022-11-24T14:05:21.613Z,97399.66
2022-11-24T14:07:51.121Z,97400.59
2022-11-24T14:10:22.084Z,97402.44
2022-11-24T14:13:31.886Z,97410.00
2022-11-24T14:16:01.139Z,97412.16
2022-11-24T14:18:28.712Z,97404.13
2022-11-24T14:20:57.508Z,97408.34
2022-11-24T14:23:24.782Z,97411.50
2022-11-24T14:25:52.633Z,97417.13
2022-11-24T14:28:23.654Z,97416.81
2022-11-24T14:30:51.580Z,97423.53
2022-11-24T14:33:19.846Z,97420.03
2022-11-24T14:35:49.769Z,97423.25
2022-11-24T14:38:18.321Z,97423.22
2022-11-24T14:40:48.385Z,97422.00
2022-11-24T14:43:27.710Z,97424.72
2022-11-24T14:45:58.070Z,97436.22
2022-11-24T14:48:27.481Z,97443.00
2022-11-24T14:51:06.046Z,97432.19
2022-11-24T14:53:35.416Z,97444.69
2022-11-24T14:56:23.383Z,97445.00
2022-11-24T14:58:51.301Z,97452.00
2022-11-24T15:01:22.351Z,97456.56
2022-11-24T15:04:26.621Z,97448.56
2022-11-24T15:07:06.126Z,97461.84
2022-11-24T15:09:37.983Z,97455.47
2022-11-24T15:12:08.250Z,97461.00
2022-11-24T15:14:49.834Z,97465.09
2022-11-24T15:17:19.518Z,97468.88
2022-11-24T15:19:50.369Z,97462.16
2022-11-24T15:22:27.382Z,97463.47
2022-11-24T15:24:55.913Z,97468.59
2022-11-24T15:27:23.273Z,97476.69
2022-11-24T15:29:50.513Z,97485.28
2022-11-24T15:32:17.761Z,97482.53
2022-11-24T15:34:44.863Z,97488.41
2022-11-24T15:37:11.986Z,97485.69
2022-11-24T15:39:39.117Z,97478.41
2022-11-24T15:42:09.103Z,97483.88
2022-11-24T15:44:36.690Z,97479.31
2022-11-24T15:47:04.105Z,97490.63
2022-11-24T15:49:31.251Z,97480.66
2022-11-24T15:51:58.424Z,97490.06
2022-11-24T15:54:25.882Z,97485.81
2022-11-24T15:56:53.176Z,97504.13
2022-11-24T15:59:21.677Z,97507.38
2022-11-24T16:01:49.323Z,97514.56
2022-11-24T16:04:16.765Z,97514.28
2022-11-24T16:06:43.879Z,97519.78
2022-11-24T16:09:14.677Z,97518.72
2022-11-24T16:11:41.786Z,97518.28
2022-11-24T16:14:08.934Z,97527.22
2022-11-24T16:16:37.569Z,97534.88
2022-11-24T16:19:04.688Z,97533.22
2022-11-24T16:21:31.795Z,97539.41
2022-11-24T16:23:58.950Z,97533.19
2022-11-24T16:26:26.054Z,97547.94
2022-11-24T16:28:53.486Z,97558.16
2022-11-24T16:31:20.731Z,97546.63
2022-11-24T16:33:49.233Z,97553.59
2022-11-24T16:36:16.352Z,97559.28
2022-11-24T16:38:43.835Z,97561.75
2022-11-24T16:41:11.054Z,97557.19
2022-11-24T16:43:38.482Z,97566.28
2022-11-24T16:46:19.731Z,97562.53
2022-11-24T16:48:50.055Z,97572.50
2022-11-24T16:51:18.568Z,97570.88
2022-11-24T16:53:45.731Z,97562.25
2022-11-24T16:56:13.365Z,97558.53
2022-11-24T16:58:41.092Z,97560.16
2022-11-24T17:01:10.237Z,97564.16
2022-11-24T17:03:38.249Z,97571.97
2022-11-24T17:06:08.839Z,97571.97
2022-11-24T17:08:37.611Z,97576.78
2022-11-24T17:11:05.971Z,97578.94
2022-11-24T17:13:33.167Z,97576.78
2022-11-24T17:16:04.141Z,97579.16
2022-11-24T17:18:31.477Z,97583.72
2022-11-24T17:21:02.041Z,97591.28
2022-11-24T17:23:33.179Z,97584.53
2022-11-24T17:26:04.710Z,97582.41
2022-11-24T17:28:31.835Z,97591.03
2022-11-24T17:30:59.046Z,97589.41
2022-11-24T17:33:28.209Z,97594.25
2022-11-24T17:35:55.314Z,97590.50
2022-11-24T17:38:22.443Z,97592.66
2022-11-24T17:40:50.905Z,97591.63
2022-11-24T17:43:18.028Z,97589.09
2022-11-24T17:45:53.028Z,97587.72
2022-11-24T17:48:20.397Z,97583.91
2022-11-24T17:50:47.762Z,97589.59
2022-11-24T17:53:14.890Z,97593.38
2022-11-24T17:55:42.001Z,97595.09
2022-11-24T17:58:10.464Z,97598.84
2022-11-24T18:00:37.913Z,97595.81
2022-11-24T18:03:05.076Z,97603.38
2022-11-24T18:05:36.116Z,97599.81
2022-11-24T18:08:03.565Z,97597.88
2022-11-24T18:10:32.153Z,97600.31
2022-11-24T18:12:59.254Z,97596.31
2022-11-24T18:15:27.742Z,97603.63
2022-11-24T18:17:54.884Z,97607.91
2022-11-24T18:20:21.985Z,97599.03
2022-11-24T18:23:05.110Z,97601.47
2022-11-24T18:25:33.173Z,97607.97
2022-11-24T18:28:00.339Z,97606.06
2022-11-24T18:30:28.802Z,97620.91
2022-11-24T18:32:58.299Z,97615.53
2022-11-24T18:35:25.465Z,97616.56
2022-11-24T18:37:53.235Z,97610.13
2022-11-24T18:40:20.355Z,97612.81
2022-11-24T18:42:47.535Z,97611.19
2022-11-24T18:45:14.751Z,97610.72
2022-11-24T18:47:43.250Z,97612.31
2022-11-24T18:50:10.654Z,97610.94
2022-11-24T18:52:37.768Z,97616.53
2022-11-24T18:55:05.563Z,97619.69
2022-11-24T18:57:32.677Z,97617.00
2022-11-24T18:59:59.794Z,97604.91
2022-11-24T19:02:27.085Z,97607.88
2022-11-24T19:04:55.671Z,97614.66
2022-11-24T19:07:22.933Z,97614.84
2022-11-24T19:09:50.083Z,97619.94
2022-11-24T19:12:17.395Z,97612.19
2022-11-24T19:14:44.501Z,97622.72
2022-11-24T19:17:11.616Z,97617.38
2022-11-24T19:19:38.743Z,97619.75
2022-11-24T19:22:07.198Z,97624.06
2022-11-24T19:24:34.599Z,97630.53
2022-11-24T19:27:01.799Z,97628.94
2022-11-24T19:29:28.910Z,97625.69
2022-11-24T19:31:56.119Z,97633.81
2022-11-24T19:34:23.326Z,97629.78
2022-11-24T19:36:50.447Z,97625.75
2022-11-24T19:39:18.949Z,97627.28
2022-11-24T19:41:46.117Z,97625.84
2022-11-24T19:44:13.529Z,97624.22
2022-11-24T19:46:40.634Z,97627.75
2022-11-24T19:49:08.269Z,97635.84
2022-11-24T19:51:38.026Z,97638.28
2022-11-24T19:54:06.763Z,97638.56
2022-11-24T19:56:36.473Z,97642.84
2022-11-24T19:59:04.974Z,97640.16
2022-11-24T20:01:34.862Z,97643.16
2022-11-24T20:04:03.751Z,97632.91
2022-11-24T20:06:34.440Z,97637.03
2022-11-24T20:09:01.587Z,97650.44
2022-11-24T20:11:29.316Z,97653.97
2022-11-24T20:13:58.203Z,97640.78
2022-11-24T20:16:29.495Z,97631.09
2022-11-24T20:18:58.826Z,97645.59
2022-11-24T20:21:27.783Z,97649.34
2022-11-24T20:23:57.350Z,97652.09
2022-11-24T20:26:26.146Z,97646.94
2022-11-24T20:28:54.564Z,97649.09
2022-11-24T20:31:25.286Z,97645.59
2022-11-24T20:33:52.430Z,97651.44
2022-11-24T20:36:21.704Z,97653.31
2022-11-24T20:38:50.420Z,97647.66
2022-11-24T20:41:19.638Z,97650.06
2022-11-24T20:43:47.754Z,97648.44
2022-11-24T20:46:17.077Z,97648.28
2022-11-24T20:48:45.750Z,97646.38
2022-11-24T20:51:14.414Z,97648.56
2022-11-24T20:53:41.704Z,97653.34
2022-11-24T20:56:10.821Z,97646.41
2022-11-24T20:58:38.754Z,97649.69
2022-11-24T21:01:06.811Z,97654.19
2022-11-24T21:03:37.250Z,97643.44
2022-11-24T21:06:11.091Z,97650.97
2022-11-24T21:08:39.813Z,97649.41
2022-11-24T21:11:08.572Z,97652.31
2022-11-24T21:13:36.866Z,97651.22
2022-11-24T21:16:12.657Z,97641.53
2022-11-24T21:18:40.151Z,97652.81
2022-11-24T21:21:07.381Z,97655.00
2022-11-24T21:23:36.031Z,97657.91
2022-11-24T21:26:05.669Z,97655.19
2022-11-24T21:28:33.728Z,97663.75
2022-11-24T21:31:03.583Z,97661.66
2022-11-24T21:33:31.121Z,97648.75
2022-11-24T21:36:01.359Z,97659.59
2022-11-24T21:38:28.487Z,97658.19
2022-11-24T21:41:00.355Z,97654.16
2022-11-24T21:43:28.299Z,97656.38
2022-11-24T21:45:55.518Z,97642.94
2022-11-24T21:48:22.665Z,97664.50
2022-11-24T21:50:49.780Z,97656.72
2022-11-24T21:53:16.913Z,97655.25
2022-11-24T21:55:44.089Z,97668.22
2022-11-24T21:58:12.584Z,97675.22
2022-11-24T22:00:39.746Z,97666.91
2022-11-24T22:03:06.898Z,97667.97
2022-11-24T22:05:34.035Z,97666.31
2022-11-24T22:08:01.179Z,97665.47
2022-11-24T22:10:28.434Z,97674.38
2022-11-24T22:12:55.529Z,97669.22
2022-11-24T22:15:23.997Z,97649.34
2022-11-24T22:17:51.128Z,97675.69
2022-11-24T22:20:18.252Z,97678.63
2022-11-24T22:22:45.383Z,97678.03
2022-11-24T22:25:12.640Z,97674.28
2022-11-24T22:27:39.751Z,97675.16
2022-11-24T22:30:08.265Z,97678.91
2022-11-24T22:32:36.777Z,97685.44
2022-11-24T22:35:04.650Z,97677.34
2022-11-24T22:37:31.761Z,97679.75
2022-11-24T22:39:58.880Z,97687.84
2022-11-24T22:42:26.032Z,97682.47
2022-11-24T22:44:53.140Z,97662.03
2022-11-24T22:47:20.278Z,97684.09
2022-11-24T22:49:48.725Z,97678.44
2022-11-24T22:52:15.841Z,97676.03
2022-11-24T22:54:42.957Z,97683.06
2022-11-24T22:57:10.049Z,97676.88
2022-11-24T22:59:37.156Z,97686.78
2022-11-24T23:02:04.282Z,97684.34
2022-11-24T23:04:31.386Z,97682.38
2022-11-24T23:06:59.830Z,97683.25
2022-11-24T23:09:27.071Z,97672.34
2022-11-24T23:11:54.177Z,97672.38
2022-11-24T23:14:21.274Z,97674.81
2022-11-24T23:16:48.580Z,97664.59
2022-11-24T23:19:15.811Z,97668.16
2022-11-24T23:21:43.210Z,97672.97
2022-11-24T23:24:11.709Z,97667.59
2022-11-24T23:26:40.633Z,97658.16
2022-11-24T23:29:07.944Z,97666.50
2022-11-24T23:31:35.359Z,97661.41
2022-11-24T23:34:04.737Z,97659.03
2022-11-24T23:36:32.931Z,97658.00
2022-11-24T23:39:03.113Z,97660.94
2022-11-24T23:41:31.886Z,97656.94
2022-11-24T23:43:59.061Z,97653.41
2022-11-24T23:46:27.742Z,97651.53
2022-11-24T23:48:55.553Z,97649.66
2022-11-24T23:51:24.300Z,97650.19
2022-11-24T23:53:53.515Z,97643.44
2022-11-24T23:56:22.008Z,97650.72
2022-11-24T23:58:50.540Z,97645.63
